createdAt,value
2019-05-26T00:00:26.875Z,95061.61
2019-05-26T00:02:59.901Z,95053.92
2019-05-26T00:05:32.522Z,95060.29
2019-05-26T00:08:05.107Z,95045.03
2019-05-26T00:10:37.517Z,95049.83
2019-05-26T00:13:09.934Z,95048.89
2019-05-26T00:15:42.740Z,95056.31
2019-05-26T00:18:15.624Z,95058.81
2019-05-26T00:20:48.183Z,95067.65
2019-05-26T00:23:20.897Z,95071.88
2019-05-26T00:25:54.471Z,95067.90
2019-05-26T00:28:26.965Z,95070.76
2019-05-26T00:30:59.916Z,95061.87
2019-05-26T00:33:32.376Z,95064.23
2019-05-26T00:36:05.140Z,95068.63
2019-05-26T00:38:38.146Z,95068.95
2019-05-26T00:41:10.568Z,95069.91
2019-05-26T00:43:43.282Z,95069.72
2019-05-26T00:46:15.824Z,95067.23
2019-05-26T00:48:49.154Z,95067.96
2019-05-26T00:51:21.625Z,95070.34
2019-05-26T00:53:53.515Z,95070.87
2019-05-26T00:56:26.117Z,95070.75
2019-05-26T00:58:59.638Z,95070.26
2019-05-26T01:01:32.559Z,95070.52
2019-05-26T01:04:05.311Z,95068.20
2019-05-26T01:06:38.334Z,95069.91
2019-05-26T01:09:11.319Z,95070.89
2019-05-26T01:11:43.821Z,95070.89
2019-05-26T01:14:16.329Z,95076.64
2019-05-26T01:16:48.667Z,95075.39
2019-05-26T01:19:21.135Z,95075.31
2019-05-26T01:21:53.645Z,95075.13
2019-05-26T01:24:26.783Z,95073.66
2019-05-26T01:26:58.903Z,95070.11
2019-05-26T01:29:31.526Z,95073.33
2019-05-26T01:32:04.172Z,95069.11
2019-05-26T01:34:36.614Z,95065.66
2019-05-26T01:37:09.355Z,95069.70
2019-05-26T01:39:42.311Z,95074.70
2019-05-26T01:42:14.939Z,95068.52
2019-05-26T01:44:47.651Z,95069.53
2019-05-26T01:47:20.180Z,95062.95
2019-05-26T01:49:52.934Z,95063.19
2019-05-26T01:52:25.555Z,95054.47
2019-05-26T01:54:58.047Z,95052.56
2019-05-26T01:57:30.913Z,95053.66
2019-05-26T02:00:03.364Z,95060.22
2019-05-26T02:02:36.740Z,95058.13
2019-05-26T02:05:09.391Z,95061.44
2019-05-26T02:07:42.208Z,95055.82
2019-05-26T02:10:15.144Z,95057.17
2019-05-26T02:12:47.819Z,95051.56
2019-05-26T02:15:21.242Z,95053.17
2019-05-26T02:17:54.123Z,95060.97
2019-05-26T02:20:27.045Z,95060.63
2019-05-26T02:22:59.540Z,95049.55
2019-05-26T02:25:32.092Z,95058.42
2019-05-26T02:28:04.699Z,95051.11
2019-05-26T02:30:37.096Z,95052.11
2019-05-26T02:33:09.171Z,95054.89
2019-05-26T02:35:41.654Z,95054.83
2019-05-26T02:38:13.507Z,95060.48
2019-05-26T02:40:46.312Z,95062.52
2019-05-26T02:43:19.194Z,95068.36
2019-05-26T02:45:52.037Z,95073.52
2019-05-26T02:48:24.220Z,95072.83
2019-05-26T02:50:57.227Z,95070.41
2019-05-26T02:53:30.078Z,95074.70
2019-05-26T02:56:02.862Z,95070.45
2019-05-26T02:58:35.481Z,95073.78
2019-05-26T03:01:08.195Z,95077.84
2019-05-26T03:03:40.900Z,95074.42
2019-05-26T03:06:14.468Z,95069.86
2019-05-26T03:08:48.455Z,95074.58
2019-05-26T03:11:21.903Z,95073.77
2019-05-26T03:13:55.715Z,95070.89
2019-05-26T03:16:29.975Z,95081.11
2019-05-26T03:19:04.584Z,95084.61
2019-05-26T03:21:38.303Z,95080.42
2019-05-26T03:24:10.890Z,95090.79
2019-05-26T03:26:43.662Z,95090.73
2019-05-26T03:29:16.329Z,95093.67
2019-05-26T03:31:49.172Z,95093.00
2019-05-26T03:34:21.673Z,95092.17
2019-05-26T03:36:54.205Z,95089.03
2019-05-26T03:39:43.237Z,95087.68
2019-05-26T03:42:00.716Z,95095.77
2019-05-26T03:44:33.599Z,95094.44
2019-05-26T03:47:06.357Z,95094.71
2019-05-26T03:49:38.845Z,95098.32
2019-05-26T03:52:12.219Z,95098.56
2019-05-26T03:54:44.840Z,95096.55
2019-05-26T03:57:17.619Z,95101.50
2019-05-26T03:59:50.060Z,95093.56
2019-05-26T04:02:22.579Z,95098.66
2019-05-26T04:04:55.128Z,95097.91
2019-05-26T04:07:27.975Z,95104.52
2019-05-26T04:10:05.213Z,95095.69
2019-05-26T04:12:34.769Z,95101.89
2019-05-26T04:15:07.437Z,95092.84
2019-05-26T04:17:39.948Z,95093.52
2019-05-26T04:20:12.607Z,95099.68
2019-05-26T04:22:45.316Z,95095.89
2019-05-26T04:25:17.997Z,95102.46
2019-05-26T04:27:50.446Z,95096.31
2019-05-26T04:30:23.609Z,95086.78
2019-05-26T04:32:56.318Z,95086.78
2019-05-26T04:35:28.882Z,95096.22
2019-05-26T04:38:01.458Z,95101.42
2019-05-26T04:40:34.477Z,95095.81
2019-05-26T04:43:07.084Z,95095.41
2019-05-26T04:45:39.611Z,95093.98
2019-05-26T04:48:12.165Z,95092.11
2019-05-26T04:50:44.724Z,95089.66
2019-05-26T04:53:17.558Z,95092.17
2019-05-26T04:55:49.929Z,95098.15
2019-05-26T04:58:22.671Z,95090.94
2019-05-26T05:00:55.009Z,95093.22
2019-05-26T05:03:28.006Z,95096.83
2019-05-26T05:06:00.648Z,95098.63
2019-05-26T05:08:32.901Z,95111.39
2019-05-26T05:11:05.806Z,95105.72
2019-05-26T05:13:38.408Z,95105.27
2019-05-26T05:16:10.834Z,95101.95
2019-05-26T05:18:43.370Z,95099.39
2019-05-26T05:21:15.869Z,95099.73
2019-05-26T05:23:48.309Z,95097.94
2019-05-26T05:26:20.978Z,95094.23
2019-05-26T05:28:53.357Z,95094.78
2019-05-26T05:31:26.074Z,95099.63
2019-05-26T05:33:58.862Z,95092.43
2019-05-26T05:36:31.758Z,95086.53
2019-05-26T05:39:05.115Z,95082.02
2019-05-26T05:41:37.701Z,95074.51
2019-05-26T05:44:10.320Z,95077.44
2019-05-26T05:46:42.751Z,95079.27
2019-05-26T05:49:15.465Z,95079.46
2019-05-26T05:51:48.292Z,95080.76
2019-05-26T05:54:20.760Z,95078.08
2019-05-26T05:56:55.582Z,95076.91
2019-05-26T05:59:27.701Z,95079.29
2019-05-26T06:02:00.544Z,95081.11
2019-05-26T06:04:33.085Z,95086.94
2019-05-26T06:07:05.706Z,95086.57
2019-05-26T06:09:39.321Z,95086.35
2019-05-26T06:12:14.747Z,95081.92
2019-05-26T06:14:47.429Z,95084.83
2019-05-26T06:17:19.974Z,95084.61
2019-05-26T06:19:52.555Z,95086.27
2019-05-26T06:22:25.166Z,95076.08
2019-05-26T06:24:57.999Z,95078.21
2019-05-26T06:27:30.454Z,95078.46
2019-05-26T06:30:02.878Z,95077.34
2019-05-26T06:32:35.686Z,95073.64
2019-05-26T06:35:08.538Z,95076.05
2019-05-26T06:37:41.563Z,95073.27
2019-05-26T06:40:14.600Z,95070.22
2019-05-26T06:42:45.770Z,95072.30
2019-05-26T06:45:18.712Z,95067.90
2019-05-26T06:47:50.400Z,95062.48
2019-05-26T06:50:22.833Z,95077.93
2019-05-26T06:52:55.310Z,95077.25
2019-05-26T06:55:29.045Z,95075.31
2019-05-26T06:58:01.402Z,95079.27
2019-05-26T07:00:34.054Z,95080.73
2019-05-26T07:03:06.637Z,95079.19
2019-05-26T07:05:42.126Z,95077.01
2019-05-26T07:08:14.084Z,95083.19
2019-05-26T07:10:46.450Z,95078.83
2019-05-26T07:13:19.135Z,95079.32
2019-05-26T07:15:51.550Z,95075.33
2019-05-26T07:18:23.998Z,95079.05
2019-05-26T07:20:56.851Z,95079.89
2019-05-26T07:23:29.562Z,95075.88
2019-05-26T07:26:02.394Z,95072.19
2019-05-26T07:28:34.547Z,95072.86
2019-05-26T07:31:07.179Z,95070.55
2019-05-26T07:33:40.951Z,95070.55
2019-05-26T07:36:13.260Z,95065.95
2019-05-26T07:38:45.914Z,95066.80
2019-05-26T07:41:18.497Z,95062.72
2019-05-26T07:43:50.939Z,95060.63
2019-05-26T07:46:23.925Z,95062.88
2019-05-26T07:48:56.592Z,95066.16
2019-05-26T07:51:29.100Z,95066.95
2019-05-26T07:54:01.977Z,95066.22
2019-05-26T07:56:34.703Z,95064.70
2019-05-26T07:59:07.093Z,95071.66
2019-05-26T08:01:39.963Z,95059.76
2019-05-26T08:04:12.713Z,95058.81
2019-05-26T08:06:45.155Z,95066.21
2019-05-26T08:09:18.232Z,95065.05
2019-05-26T08:11:50.543Z,95060.31
2019-05-26T08:14:23.206Z,95067.72
2019-05-26T08:16:55.605Z,95066.55
2019-05-26T08:19:27.967Z,95063.05
2019-05-26T08:22:00.760Z,95058.84
2019-05-26T08:24:33.510Z,95060.89
2019-05-26T08:27:06.092Z,95065.61
2019-05-26T08:29:37.683Z,95051.65
2019-05-26T08:32:10.279Z,95062.21
2019-05-26T08:34:43.028Z,95051.11
2019-05-26T08:37:15.451Z,95051.62
2019-05-26T08:39:48.975Z,95054.67
2019-05-26T08:42:27.369Z,95050.77
2019-05-26T08:44:56.065Z,95042.72
2019-05-26T08:47:28.769Z,95045.95
2019-05-26T08:50:01.509Z,95047.74
2019-05-26T08:52:33.499Z,95048.30
2019-05-26T08:55:06.346Z,95043.75
2019-05-26T08:57:37.432Z,95043.95
2019-05-26T09:00:10.763Z,95047.32
2019-05-26T09:02:43.544Z,95043.22
2019-05-26T09:05:16.621Z,95047.12
2019-05-26T09:07:49.111Z,95045.74
2019-05-26T09:10:22.092Z,95043.98
2019-05-26T09:13:01.255Z,95049.05
2019-05-26T09:15:29.092Z,95044.14
2019-05-26T09:18:01.911Z,95043.24
2019-05-26T09:20:33.112Z,95049.96
2019-05-26T09:23:05.996Z,95040.30
2019-05-26T09:25:37.302Z,95046.86
2019-05-26T09:28:10.286Z,95042.91
2019-05-26T09:30:43.046Z,95046.69
2019-05-26T09:33:15.705Z,95037.36
2019-05-26T09:35:48.228Z,95038.99
2019-05-26T09:38:20.639Z,95038.24
2019-05-26T09:40:53.161Z,95039.37
2019-05-26T09:43:25.772Z,95034.92
2019-05-26T09:45:58.828Z,95039.39
2019-05-26T09:48:31.346Z,95034.04
2019-05-26T09:51:03.963Z,95034.04
2019-05-26T09:53:36.378Z,95028.17
2019-05-26T09:56:08.806Z,95016.36
2019-05-26T09:58:41.389Z,95024.18
2019-05-26T10:01:14.713Z,95023.16
2019-05-26T10:03:48.484Z,95014.54
2019-05-26T10:06:21.918Z,95013.31
2019-05-26T10:08:54.549Z,95013.52
2019-05-26T10:11:26.984Z,95013.64
2019-05-26T10:13:59.469Z,95006.03
2019-05-26T10:16:32.176Z,95008.28
2019-05-26T10:19:05.220Z,95010.23
2019-05-26T10:21:37.721Z,95007.63
2019-05-26T10:24:10.784Z,95002.27
2019-05-26T10:26:44.691Z,95008.19
2019-05-26T10:29:17.491Z,94996.27
2019-05-26T10:31:48.588Z,94993.56
2019-05-26T10:34:22.263Z,95002.36
2019-05-26T10:36:53.236Z,95001.74
2019-05-26T10:39:25.773Z,94995.92
2019-05-26T10:41:58.495Z,95000.30
2019-05-26T10:44:30.006Z,94992.98
2019-05-26T10:47:02.428Z,94996.78
2019-05-26T10:49:34.857Z,94987.81
2019-05-26T10:52:07.495Z,94983.80
2019-05-26T10:54:40.391Z,94982.44
2019-05-26T10:57:12.980Z,94979.50
2019-05-26T10:59:45.159Z,95019.31
2019-05-26T11:02:17.848Z,94981.27
2019-05-26T11:04:48.975Z,94980.73
2019-05-26T11:07:21.545Z,94974.60
2019-05-26T11:09:53.819Z,94979.48
2019-05-26T11:12:26.472Z,94977.95
2019-05-26T11:14:58.873Z,94977.48
2019-05-26T11:17:31.788Z,94973.13
2019-05-26T11:20:04.606Z,94966.62
2019-05-26T11:22:37.157Z,94963.19
2019-05-26T11:25:10.097Z,94964.50
2019-05-26T11:27:42.977Z,94954.30
2019-05-26T11:30:17.447Z,94954.02
2019-05-26T11:32:49.994Z,94954.70
2019-05-26T11:35:23.041Z,94949.91
2019-05-26T11:37:55.810Z,94947.41
2019-05-26T11:40:28.794Z,94947.39
2019-05-26T11:43:14.047Z,94947.04
2019-05-26T11:45:36.069Z,94949.20
2019-05-26T11:48:08.889Z,94951.45
2019-05-26T11:50:41.413Z,94952.63
2019-05-26T11:53:13.901Z,94939.47
2019-05-26T11:55:47.029Z,94935.38
2019-05-26T11:58:19.597Z,94934.66
2019-05-26T12:00:53.379Z,94936.89
2019-05-26T12:03:25.816Z,94939.06
2019-05-26T12:05:58.471Z,94929.10
2019-05-26T12:08:29.663Z,94929.18
2019-05-26T12:11:02.275Z,94936.77
2019-05-26T12:13:36.569Z,94931.95
2019-05-26T12:16:07.789Z,94928.70
2019-05-26T12:18:38.988Z,94924.80
2019-05-26T12:21:11.312Z,94923.55
2019-05-26T12:23:44.185Z,94917.98
2019-05-26T12:26:16.908Z,94922.55
2019-05-26T12:28:49.329Z,94926.53
2019-05-26T12:31:21.723Z,94926.53
2019-05-26T12:33:53.858Z,94917.27
2019-05-26T12:36:26.043Z,94916.11
2019-05-26T12:38:59.157Z,94905.57
2019-05-26T12:41:34.971Z,94900.83
2019-05-26T12:44:10.740Z,94899.34
2019-05-26T12:49:36.942Z,94900.72
2019-05-26T12:52:08.632Z,94894.82
2019-05-26T12:54:40.169Z,94897.98
2019-05-26T12:57:11.570Z,94887.48
2019-05-26T12:59:42.919Z,94885.44
2019-05-26T13:02:14.397Z,94882.62
2019-05-26T13:04:45.798Z,94887.37
2019-05-26T13:07:17.380Z,94883.45
2019-05-26T13:09:48.723Z,94875.38
2019-05-26T13:12:20.256Z,94873.00
2019-05-26T13:15:04.972Z,94873.45
2019-05-26T13:17:25.160Z,94876.80
2019-05-26T13:19:56.595Z,94875.80
2019-05-26T13:22:28.106Z,94872.64
2019-05-26T13:24:59.456Z,94878.11
2019-05-26T13:27:30.916Z,94875.11
2019-05-26T13:30:02.552Z,94884.19
2019-05-26T13:32:35.136Z,94877.78
2019-05-26T13:35:07.165Z,94877.23
2019-05-26T13:37:38.993Z,94879.23
2019-05-26T13:40:10.641Z,94874.14
2019-05-26T13:42:42.269Z,94875.30
2019-05-26T13:45:22.211Z,94877.73
2019-05-26T13:47:47.728Z,94872.75
2019-05-26T13:50:21.035Z,94873.45
2019-05-26T13:52:52.448Z,94874.75
2019-05-26T13:55:24.158Z,94868.06
2019-05-26T13:57:55.490Z,94872.47
2019-05-26T14:00:27.155Z,94861.77
2019-05-26T14:02:59.291Z,94869.27
2019-05-26T14:05:31.068Z,94870.95
2019-05-26T14:08:02.424Z,94868.79
2019-05-26T14:10:37.975Z,94867.55
2019-05-26T14:13:09.874Z,94870.11
2019-05-26T14:15:41.331Z,94865.34
2019-05-26T14:18:13.835Z,94861.31
2019-05-26T14:20:45.846Z,94859.32
2019-05-26T14:23:17.401Z,94859.32
2019-05-26T14:25:48.826Z,94855.95
2019-05-26T14:28:20.295Z,94849.84
2019-05-26T14:30:52.029Z,94853.45
2019-05-26T14:33:23.416Z,94853.45
2019-05-26T14:35:54.921Z,94859.30
2019-05-26T14:38:42.003Z,94856.75
2019-05-26T14:40:59.661Z,94856.75
2019-05-26T14:43:31.263Z,94863.04
2019-05-26T14:46:02.998Z,94863.06
2019-05-26T14:48:34.445Z,94854.14
2019-05-26T14:51:05.953Z,94866.24
2019-05-26T14:53:37.539Z,94858.02
2019-05-26T14:56:08.970Z,94861.83
2019-05-26T14:58:40.668Z,94857.41
2019-05-26T15:01:12.114Z,94857.41
2019-05-26T15:03:43.844Z,94845.53
2019-05-26T15:06:15.514Z,94850.30
2019-05-26T15:08:46.927Z,94847.79
2019-05-26T15:11:18.482Z,94843.61
2019-05-26T15:13:50.113Z,94838.63
2019-05-26T15:16:21.622Z,94840.91
2019-05-26T15:18:53.272Z,94848.94
2019-05-26T15:21:24.760Z,94837.16
2019-05-26T15:23:56.115Z,94837.16
2019-05-26T15:26:27.607Z,94843.85
2019-05-26T15:28:59.119Z,94836.14
2019-05-26T15:31:30.356Z,94836.14
2019-05-26T15:34:01.872Z,94884.02
2019-05-26T15:36:33.416Z,94840.42
2019-05-26T15:39:05.371Z,94842.70
2019-05-26T15:41:36.938Z,94858.86
2019-05-26T15:44:08.360Z,94850.14
2019-05-26T15:46:39.873Z,94848.89
2019-05-26T15:49:11.217Z,94848.00
2019-05-26T15:51:42.520Z,94857.78
2019-05-26T15:54:14.352Z,94852.42
2019-05-26T15:56:46.125Z,94852.45
2019-05-26T15:59:17.522Z,94860.09
2019-05-26T16:01:49.268Z,94856.22
2019-05-26T16:04:20.659Z,94859.59
2019-05-26T16:06:52.253Z,94856.31
2019-05-26T16:09:23.660Z,94855.23
2019-05-26T16:11:55.394Z,94859.53
2019-05-26T16:14:27.106Z,94861.91
2019-05-26T16:16:58.709Z,94868.32
2019-05-26T16:19:30.149Z,94868.84
2019-05-26T16:22:01.618Z,94867.42
2019-05-26T16:24:33.095Z,94869.80
2019-05-26T16:27:18.158Z,94872.83
2019-05-26T16:29:37.847Z,94876.41
2019-05-26T16:32:10.293Z,94872.37
2019-05-26T16:34:41.785Z,94879.13
2019-05-26T16:37:13.115Z,94879.27
2019-05-26T16:39:44.580Z,94880.02
2019-05-26T16:42:15.924Z,94894.45
2019-05-26T16:44:47.505Z,94895.84
2019-05-26T16:47:19.126Z,94896.53
2019-05-26T16:49:50.525Z,94900.10
2019-05-26T16:52:21.938Z,94893.09
2019-05-26T16:54:53.360Z,94902.41
2019-05-26T16:57:24.697Z,94897.31
2019-05-26T16:59:56.074Z,94897.80
2019-05-26T17:02:27.483Z,94901.41
2019-05-26T17:04:58.874Z,94897.59
2019-05-26T17:07:30.367Z,94904.20
2019-05-26T17:10:02.490Z,94905.03
2019-05-26T17:12:34.142Z,94901.22
2019-05-26T17:15:06.478Z,94900.10
2019-05-26T17:17:38.256Z,94905.59
2019-05-26T17:20:10.493Z,94901.53
2019-05-26T17:22:41.990Z,94909.47
2019-05-26T17:25:14.072Z,94906.77
2019-05-26T17:27:45.932Z,94910.69
2019-05-26T17:30:25.436Z,94905.67
2019-05-26T17:32:57.471Z,94900.41
2019-05-26T17:35:29.155Z,94905.31
2019-05-26T17:38:00.390Z,94907.56
2019-05-26T17:40:32.766Z,94904.83
2019-05-26T17:43:04.244Z,94910.09
2019-05-26T17:45:35.883Z,94912.63
2019-05-26T17:48:07.662Z,94911.72
2019-05-26T17:50:39.219Z,94910.86
2019-05-26T17:53:10.647Z,94916.01
2019-05-26T17:55:42.177Z,94912.17
2019-05-26T17:58:13.858Z,94913.17
2019-05-26T18:00:45.419Z,94914.59
2019-05-26T18:03:17.320Z,94913.69
2019-05-26T18:05:48.744Z,94918.08
2019-05-26T18:08:20.507Z,94918.09
2019-05-26T18:10:51.901Z,94918.89
2019-05-26T18:13:24.732Z,94921.67
2019-05-26T18:15:56.432Z,94930.66
2019-05-26T18:18:27.965Z,94929.47
2019-05-26T18:20:59.478Z,94939.67
2019-05-26T18:23:31.910Z,94949.70
2019-05-26T18:26:03.218Z,94949.89
2019-05-26T18:28:34.927Z,94948.57
2019-05-26T18:31:06.424Z,94949.61
2019-05-26T18:33:37.870Z,94956.73
2019-05-26T18:36:09.386Z,94951.96
2019-05-26T18:38:40.676Z,94954.11
2019-05-26T18:41:12.231Z,94953.45
2019-05-26T18:43:43.937Z,94954.92
2019-05-26T18:46:15.762Z,94958.81
2019-05-26T18:48:47.462Z,94969.52
2019-05-26T18:51:19.211Z,94967.48
2019-05-26T18:53:51.536Z,94967.67
2019-05-26T18:56:23.330Z,94972.05
2019-05-26T18:58:54.682Z,94974.58
2019-05-26T19:01:26.341Z,94981.20
2019-05-26T19:03:57.788Z,94976.42
2019-05-26T19:06:29.522Z,94984.95
2019-05-26T19:09:01.060Z,94988.86
2019-05-26T19:11:34.453Z,94987.81
2019-05-26T19:14:06.370Z,94993.84
2019-05-26T19:16:37.861Z,94995.39
2019-05-26T19:19:09.511Z,95000.87
2019-05-26T19:21:41.115Z,95001.96
2019-05-26T19:24:12.591Z,95001.28
2019-05-26T19:26:44.247Z,94997.07
2019-05-26T19:29:15.687Z,95011.25
2019-05-26T19:31:48.899Z,95010.75
2019-05-26T19:34:27.865Z,95007.33
2019-05-26T19:37:04.462Z,95008.98
2019-05-26T19:39:37.720Z,95002.36
2019-05-26T19:42:11.202Z,95003.23
2019-05-26T19:44:45.150Z,94999.84
2019-05-26T19:47:31.350Z,94994.66
2019-05-26T19:50:14.884Z,95002.05
2019-05-26T19:52:50.149Z,94999.70
2019-05-26T19:55:25.617Z,95001.14
2019-05-26T19:57:56.927Z,94996.58
2019-05-26T20:00:28.966Z,95000.80
2019-05-26T20:03:00.467Z,95001.19
2019-05-26T20:05:31.859Z,94995.19
2019-05-26T20:08:03.406Z,95000.30
2019-05-26T20:10:35.086Z,94996.27
2019-05-26T20:13:06.804Z,94996.27
2019-05-26T20:15:41.293Z,94998.20
2019-05-26T20:18:13.259Z,95002.75
2019-05-26T20:20:44.738Z,95000.59
2019-05-26T20:23:20.416Z,95003.25
2019-05-26T20:25:53.932Z,95000.22
2019-05-26T20:28:28.246Z,95005.48
2019-05-26T20:31:04.248Z,95010.14
2019-05-26T20:33:37.882Z,95005.73
2019-05-26T20:36:11.193Z,95011.16
2019-05-26T20:38:44.230Z,95005.98
2019-05-26T20:41:16.379Z,95008.60
2019-05-26T20:44:02.094Z,95012.25
2019-05-26T20:46:33.971Z,95007.83
2019-05-26T20:49:05.670Z,95006.97
2019-05-26T20:51:37.235Z,95015.91
2019-05-26T20:54:08.702Z,95017.84
2019-05-26T20:56:40.257Z,95023.66
2019-05-26T20:59:11.751Z,95024.25
2019-05-26T21:01:43.289Z,95029.59
2019-05-26T21:04:14.769Z,95021.48
2019-05-26T21:06:47.785Z,95027.23
2019-05-26T21:09:18.087Z,95029.55
2019-05-26T21:11:49.629Z,95030.64
2019-05-26T21:14:22.324Z,95030.75
2019-05-26T21:16:53.751Z,95033.16
2019-05-26T21:19:25.581Z,95039.55
2019-05-26T21:21:57.042Z,95033.99
2019-05-26T21:24:28.760Z,95029.41
2019-05-26T21:27:00.167Z,95030.68
2019-05-26T21:29:31.675Z,95029.38
2019-05-26T21:32:03.261Z,95031.77
2019-05-26T21:34:34.774Z,95028.61
2019-05-26T21:37:06.694Z,95022.14
2019-05-26T21:39:38.242Z,95023.52
2019-05-26T21:42:09.952Z,95013.27
2019-05-26T21:44:41.448Z,95009.84
2019-05-26T21:47:12.771Z,95009.42
2019-05-26T21:49:44.809Z,95008.44
2019-05-26T21:52:16.491Z,95001.74
2019-05-26T21:54:47.820Z,95003.42
2019-05-26T21:57:21.506Z,95002.18
2019-05-26T21:59:54.494Z,95000.91
2019-05-26T22:02:27.752Z,95001.67
2019-05-26T22:05:00.883Z,94994.58
2019-05-26T22:07:35.111Z,95005.41
2019-05-26T22:10:07.335Z,94998.50
2019-05-26T22:12:40.179Z,94999.98
2019-05-26T22:15:13.414Z,94991.67
2019-05-26T22:17:47.296Z,94996.56
2019-05-26T22:20:20.369Z,94991.54
2019-05-26T22:22:50.575Z,94991.73
2019-05-26T22:25:21.791Z,94988.78
2019-05-26T22:27:53.474Z,94990.53
2019-05-26T22:30:25.061Z,94989.36
2019-05-26T22:32:56.762Z,94989.67
2019-05-26T22:35:28.259Z,94982.41
2019-05-26T22:37:59.711Z,94993.26
2019-05-26T22:40:31.305Z,94992.23
2019-05-26T22:43:02.775Z,94992.72
2019-05-26T22:45:34.380Z,95002.91
2019-05-26T22:48:05.974Z,94998.09
2019-05-26T22:50:37.377Z,94996.89
2019-05-26T22:53:08.799Z,95002.70
2019-05-26T22:55:40.242Z,95000.92
2019-05-26T22:58:11.804Z,94996.14
2019-05-26T23:00:43.557Z,94993.30
2019-05-26T23:03:15.173Z,94992.52
2019-05-26T23:05:46.923Z,94993.94
2019-05-26T23:08:18.347Z,95006.83
2019-05-26T23:10:50.025Z,94998.55
2019-05-26T23:13:21.375Z,95006.44
2019-05-26T23:15:53.155Z,95002.20
2019-05-26T23:18:24.492Z,95006.34
2019-05-26T23:20:56.132Z,95001.97
2019-05-26T23:23:27.617Z,95002.45
2019-05-26T23:25:59.462Z,95004.64
2019-05-26T23:28:30.926Z,95005.93
2019-05-26T23:31:03.747Z,95003.25
2019-05-26T23:33:35.310Z,95002.00
2019-05-26T23:36:06.745Z,94996.44
2019-05-26T23:38:38.445Z,94999.95
2019-05-26T23:41:10.187Z,94994.33
2019-05-26T23:43:43.027Z,94999.94
2019-05-26T23:46:14.429Z,95001.30
2019-05-26T23:48:45.833Z,94993.85
2019-05-26T23:51:17.580Z,94986.35
2019-05-26T23:53:49.090Z,94995.73
2019-05-26T23:56:20.433Z,94994.77
2019-05-26T23:58:52.149Z,94997.19
